Time;durP1;ratioP1;P1;durP2;ratioP2;P2;SDS_P1;SDS_P2;PMS_P1;PMS_P2;Temp;Humidity;BMP_temperature;BMP_pressure;BME280_temperature;BME280_humidity;BME280_pressure;Samples;Min_cycle;Max_cycle;Signal;HPM_P1;HPM_P2
2022/07/12 00:02:14;;;;;;;5.73;3.47;;;;;;;14.19;100.00;96884.75;5036556;28;20406;-78
2022/07/12 00:04:40;;;;;;;5.30;3.40;;;;;;;14.29;100.00;96888.06;5043180;28;20482;-78
2022/07/12 00:07:05;;;;;;;6.50;3.70;;;;;;;14.39;100.00;96886.06;5036231;28;20037;-78
2022/07/12 00:09:31;;;;;;;4.70;3.23;;;;;;;14.44;100.00;96892.69;5040816;28;20036;-77
2022/07/12 00:11:57;;;;;;;4.73;3.30;;;;;;;14.52;100.00;96887.38;5026233;28;20033;-78
2022/07/12 00:14:24;;;;;;;6.53;4.03;;;;;;;14.50;100.00;96878.78;5028981;28;20048;-79
2022/07/12 00:16:51;;;;;;;8.47;3.70;;;;;;;14.50;100.00;96882.28;5034032;28;20175;-77
2022/07/12 00:19:17;;;;;;;7.70;3.70;;;;;;;14.52;100.00;96882.09;5034739;28;20026;-77
2022/07/12 00:21:43;;;;;;;4.50;3.50;;;;;;;14.57;100.00;96883.25;5020713;28;20502;-78
2022/07/12 00:24:09;;;;;;;4.87;3.30;;;;;;;14.49;100.00;96885.91;5046960;28;20116;-78
2022/07/12 00:26:35;;;;;;;6.30;3.50;;;;;;;14.56;100.00;96886.09;5028299;28;20124;-77
2022/07/12 00:29:01;;;;;;;6.87;3.30;;;;;;;14.59;100.00;96889.22;5028808;28;20398;-78
2022/07/12 00:31:27;;;;;;;5.60;3.60;;;;;;;14.54;100.00;96888.06;5028729;28;20037;-78
2022/07/12 00:33:52;;;;;;;5.07;3.50;;;;;;;14.48;100.00;96891.34;5030539;28;20147;-78
2022/07/12 00:36:19;;;;;;;3.87;2.73;;;;;;;14.42;100.00;96892.84;5033171;28;20270;-78
2022/07/12 00:38:45;;;;;;;4.43;2.47;;;;;;;14.42;100.00;96886.72;5029157;28;20029;-78
2022/07/12 00:41:11;;;;;;;4.03;2.63;;;;;;;14.36;100.00;96893.53;5040691;28;20094;-78
2022/07/12 00:43:37;;;;;;;5.00;2.30;;;;;;;14.33;100.00;96892.03;5043878;28;20028;-78
2022/07/12 00:46:03;;;;;;;5.07;2.60;;;;;;;14.34;100.00;96888.38;5024954;28;20026;-77
2022/07/12 00:48:31;;;;;;;3.53;2.70;;;;;;;14.28;100.00;96889.03;5033902;28;20138;-78
2022/07/12 00:50:57;;;;;;;5.67;3.03;;;;;;;14.26;100.00;96880.47;5038392;28;20507;-79
2022/07/12 00:53:24;;;;;;;5.10;3.50;;;;;;;14.21;100.00;96881.94;5028930;28;20033;-78
2022/07/12 00:55:55;;;;;;;4.87;3.17;;;;;;;14.27;100.00;96882.09;5032490;28;20065;-78
2022/07/12 00:58:22;;;;;;;5.70;3.70;;;;;;;14.25;100.00;96881.47;5024449;28;20041;-78
2022/07/12 01:00:49;;;;;;;5.27;3.33;;;;;;;14.20;100.00;96882.94;5030208;28;20055;-78
2022/07/12 01:03:15;;;;;;;5.73;4.13;;;;;;;14.23;100.00;96878.16;5033335;28;20036;-78
2022/07/12 01:05:40;;;;;;;5.87;3.87;;;;;;;14.26;100.00;96872.53;5034819;28;20045;-78
2022/07/12 01:08:07;;;;;;;6.93;3.97;;;;;;;14.09;100.00;96873.53;5028662;28;20041;-78
2022/07/12 01:10:35;;;;;;;5.97;3.70;;;;;;;14.10;100.00;96881.28;5040716;28;20048;-79
2022/07/12 01:13:01;;;;;;;6.83;4.10;;;;;;;14.14;100.00;96879.13;5030117;28;20069;-79
2022/07/12 01:15:29;;;;;;;6.00;4.20;;;;;;;14.16;100.00;96871.88;5029117;28;20122;-78
2022/07/12 01:17:56;;;;;;;6.67;4.47;;;;;;;14.09;100.00;96869.06;5035366;28;20033;-78
2022/07/12 01:20:23;;;;;;;5.47;3.73;;;;;;;14.12;100.00;96867.91;5032232;28;20045;-78
2022/07/12 01:22:53;;;;;;;5.20;3.87;;;;;;;14.11;100.00;96866.22;5034124;28;20148;-78
2022/07/12 01:25:19;;;;;;;5.10;3.17;;;;;;;14.07;100.00;96871.03;5030162;28;20045;-78
2022/07/12 01:27:45;;;;;;;5.93;3.60;;;;;;;14.05;100.00;96869.53;5043260;28;20037;-78
2022/07/12 01:30:11;;;;;;;5.23;3.30;;;;;;;14.07;100.00;96881.59;5035881;28;20036;-78
2022/07/12 01:32:37;;;;;;;5.47;3.70;;;;;;;14.05;100.00;96877.47;5038524;28;20112;-78
2022/07/12 01:35:08;;;;;;;4.97;3.20;;;;;;;14.06;100.00;96884.44;5029142;28;20183;-76
2022/07/12 01:37:35;;;;;;;5.03;3.50;;;;;;;14.03;100.00;96880.28;5025595;28;20041;-75
2022/07/12 01:40:02;;;;;;;4.83;3.20;;;;;;;14.09;100.00;96884.09;5041749;28;20048;-78
2022/07/12 01:42:29;;;;;;;4.73;3.07;;;;;;;14.08;100.00;96875.34;5024424;28;20036;-78
2022/07/12 01:44:56;;;;;;;4.87;3.43;;;;;;;14.11;100.00;96880.28;5025475;28;20429;-78
2022/07/12 01:47:26;;;;;;;4.90;3.10;;;;;;;14.06;100.00;96879.16;5058393;28;20036;-78
2022/07/12 01:49:52;;;;;;;4.50;3.10;;;;;;;14.08;100.00;96885.06;5031537;28;20040;-79
2022/07/12 01:52:19;;;;;;;6.40;3.33;;;;;;;14.06;100.00;96885.25;5030973;28;20034;-78
2022/07/12 01:54:45;;;;;;;3.33;2.57;;;;;;;14.17;100.00;96880.63;5040851;28;20040;-78
2022/07/12 02:05:12;;;;;;;3.37;2.13;;;;;;;14.15;100.00;96886.91;5025339;28;20510;-79
2022/07/12 02:07:39;;;;;;;3.57;2.50;;;;;;;14.21;100.00;96876.66;5021000;28;20032;-78
2022/07/12 02:10:06;;;;;;;5.63;2.57;;;;;;;14.16;100.00;96877.16;5031265;28;20028;-78
2022/07/12 02:12:32;;;;;;;5.07;2.83;;;;;;;14.18;100.00;96879.63;5029193;28;20573;-78
2022/07/12 02:14:57;;;;;;;4.73;3.10;;;;;;;14.12;100.00;96881.94;5039890;28;20123;-78
2022/07/12 02:17:23;;;;;;;4.23;2.63;;;;;;;14.01;100.00;96881.44;5043067;28;20033;-78
2022/07/12 02:19:49;;;;;;;5.73;2.53;;;;;;;14.05;100.00;96883.59;5039924;28;20033;-78
2022/07/12 02:22:14;;;;;;;4.80;2.80;;;;;;;13.98;100.00;96882.59;5029640;28;20063;-78
2022/07/12 02:24:40;;;;;;;5.03;3.10;;;;;;;13.95;100.00;96882.09;5031578;28;20175;-78
2022/07/12 02:27:06;;;;;;;5.00;3.20;;;;;;;13.76;100.00;96888.53;5038953;28;20067;-78
2022/07/12 02:29:32;;;;;;;4.00;3.00;;;;;;;13.69;100.00;96883.06;5033579;28;20422;-78
2022/07/12 02:31:57;;;;;;;4.97;3.30;;;;;;;13.60;100.00;96879.56;5048328;28;20068;-79
2022/07/12 02:34:23;;;;;;;4.03;2.80;;;;;;;13.60;100.00;96870.81;5042920;28;20029;-78
2022/07/12 02:36:49;;;;;;;5.47;3.20;;;;;;;13.49;100.00;96865.84;5028226;28;20040;-79
2022/07/12 02:39:14;;;;;;;7.67;3.50;;;;;;;13.40;100.00;96871.09;5049537;28;20037;-78
2022/07/12 02:41:40;;;;;;;4.93;3.47;;;;;;;13.46;100.00;96872.28;5045400;28;20104;-79
2022/07/12 02:44:06;;;;;;;4.07;3.10;;;;;;;13.43;100.00;96868.13;5046631;28;20038;-78
2022/07/12 02:46:31;;;;;;;4.83;3.30;;;;;;;13.42;100.00;96873.59;5036304;28;20031;-78
2022/07/12 02:48:58;;;;;;;5.20;3.07;;;;;;;13.35;100.00;96880.53;5043588;28;20032;-78
2022/07/12 02:51:23;;;;;;;7.70;3.53;;;;;;;13.39;100.00;96876.56;5028622;28;20029;-78
2022/07/12 02:53:49;;;;;;;5.13;3.37;;;;;;;13.33;100.00;96878.03;5035588;28;20037;-75
2022/07/12 02:56:15;;;;;;;5.53;3.43;;;;;;;13.32;100.00;96876.38;5040627;28;20040;-76
2022/07/12 02:58:40;;;;;;;8.03;4.00;;;;;;;13.39;100.00;96877.38;5034728;28;20037;-76
2022/07/12 03:01:06;;;;;;;5.77;3.50;;;;;;;13.31;100.00;96876.53;5030344;28;20485;-76
2022/07/12 03:03:32;;;;;;;7.67;3.60;;;;;;;13.20;100.00;96883.72;5038492;28;20025;-75
2022/07/12 03:05:58;;;;;;;7.13;3.97;;;;;;;13.11;100.00;96876.78;5037255;28;20029;-75
2022/07/12 03:08:23;;;;;;;6.53;4.13;;;;;;;13.04;100.00;96880.19;5043383;28;20037;-76
2022/07/12 03:10:49;;;;;;;5.70;3.50;;;;;;;13.06;100.00;96881.69;5032904;28;20049;-76
2022/07/12 03:13:15;;;;;;;6.77;3.60;;;;;;;13.10;100.00;96892.75;5040002;28;20040;-75
2022/07/12 03:15:41;;;;;;;4.60;3.00;;;;;;;13.11;100.00;96886.47;5032416;28;20911;-75
2022/07/12 03:18:06;;;;;;;5.53;3.33;;;;;;;13.04;100.00;96888.09;5033690;28;20041;-76
2022/07/12 03:20:32;;;;;;;4.30;3.10;;;;;;;12.97;100.00;96887.91;5044157;28;20049;-75
2022/07/12 03:22:58;;;;;;;5.30;3.50;;;;;;;12.95;100.00;96887.25;5031591;28;20080;-78
2022/07/12 03:25:24;;;;;;;5.93;3.73;;;;;;;12.91;100.00;96893.81;5028344;28;20469;-75
2022/07/12 03:27:50;;;;;;;6.03;3.73;;;;;;;12.87;100.00;96888.03;5028346;28;20100;-76
2022/07/12 03:30:16;;;;;;;5.10;3.47;;;;;;;12.84;100.00;96896.25;5036202;28;20916;-76
2022/07/12 03:32:43;;;;;;;6.60;3.77;;;;;;;12.87;100.00;96895.94;5030269;28;20044;-76
2022/07/12 03:35:10;;;;;;;5.77;3.90;;;;;;;12.88;100.00;96895.00;5042174;28;20037;-76
2022/07/12 03:37:53;;;;;;;6.07;4.03;;;;;;;12.85;100.00;96897.94;5039347;28;20025;-75
2022/07/12 03:40:21;;;;;;;7.00;4.27;;;;;;;12.89;100.00;96896.63;5036162;28;20075;-75
2022/07/12 03:42:47;;;;;;;5.67;4.00;;;;;;;12.95;100.00;96903.94;5033223;28;20032;-79
2022/07/12 03:45:13;;;;;;;5.77;3.57;;;;;;;12.98;100.00;96906.25;5041591;28;20044;-79
2022/07/12 03:47:40;;;;;;;7.03;3.83;;;;;;;13.04;100.00;96901.31;5039864;28;20037;-78
2022/07/12 03:50:08;;;;;;;8.83;6.37;;;;;;;13.09;100.00;96905.16;5036810;28;20045;-78
2022/07/12 03:52:34;;;;;;;13.80;11.23;;;;;;;13.07;100.00;96909.75;5031561;28;20080;-78
2022/07/12 03:55:03;;;;;;;6.97;4.93;;;;;;;12.97;100.00;96909.84;5042292;28;20037;-78
2022/07/12 03:57:30;;;;;;;5.60;3.70;;;;;;;13.03;100.00;96912.88;5027738;28;20514;-79
2022/07/12 03:59:56;;;;;;;5.27;3.43;;;;;;;13.05;100.00;96917.00;5029679;28;20398;-78
2022/07/12 04:02:22;;;;;;;8.87;4.03;;;;;;;13.05;100.00;96916.19;5043936;28;20043;-79
2022/07/12 04:04:48;;;;;;;5.10;3.00;;;;;;;13.07;100.00;96914.19;5041037;28;20044;-78
2022/07/12 04:07:14;;;;;;;5.23;3.20;;;;;;;13.09;100.00;96906.97;5036633;28;20417;-78
2022/07/12 04:09:39;;;;;;;4.97;2.70;;;;;;;13.03;100.00;96912.88;5032605;28;20028;-78
2022/07/12 04:12:05;;;;;;;12.80;10.60;;;;;;;13.01;100.00;96913.03;5036856;28;20095;-80
2022/07/12 04:14:31;;;;;;;15.60;13.23;;;;;;;12.96;100.00;96910.84;5031514;28;20057;-78
2022/07/12 04:16:57;;;;;;;11.03;7.37;;;;;;;13.04;100.00;96917.16;5033761;28;20046;-78
2022/07/12 04:19:23;;;;;;;8.27;4.57;;;;;;;12.96;100.00;96916.13;5039691;28;20048;-78
2022/07/12 04:21:49;;;;;;;5.70;3.30;;;;;;;12.95;100.00;96917.13;5010231;28;20044;-78
2022/07/12 04:24:15;;;;;;;7.40;4.00;;;;;;;12.98;100.00;96916.00;5027597;28;20034;-78
2022/07/12 04:26:40;;;;;;;7.07;3.70;;;;;;;13.04;100.00;96915.34;5033162;28;20022;-78
2022/07/12 04:29:06;;;;;;;7.63;3.97;;;;;;;13.04;100.00;96925.06;5030947;28;20042;-78
2022/07/12 04:31:32;;;;;;;6.57;3.97;;;;;;;13.10;100.00;96927.91;5015560;28;20053;-78
2022/07/12 04:33:58;;;;;;;5.30;3.77;;;;;;;13.17;100.00;96925.47;5038053;28;20095;-78
2022/07/12 04:36:23;;;;;;;6.73;3.93;;;;;;;13.19;100.00;96931.44;5028124;28;20079;-78
2022/07/12 04:38:49;;;;;;;8.23;3.93;;;;;;;13.26;100.00;96918.44;5034785;28;20033;-78
2022/07/12 04:41:15;;;;;;;5.03;3.30;;;;;;;13.32;100.00;96926.56;5027141;28;20483;-77
2022/07/12 04:43:41;;;;;;;6.33;4.13;;;;;;;13.42;100.00;96929.09;5027968;28;20072;-78
2022/07/12 04:46:07;;;;;;;4.90;3.20;;;;;;;13.54;100.00;96932.25;5060161;28;20391;-78
2022/07/12 04:48:33;;;;;;;4.83;3.30;;;;;;;13.64;100.00;96932.94;5032533;28;20036;-78
2022/07/12 04:50:59;;;;;;;6.43;3.57;;;;;;;13.63;100.00;96940.03;5045127;28;20089;-79
2022/07/12 04:53:24;;;;;;;6.33;3.90;;;;;;;13.75;100.00;96939.72;5047581;28;20038;-78
2022/07/12 04:55:50;;;;;;;7.03;4.23;;;;;;;13.60;100.00;96939.53;5039995;28;20037;-79
2022/07/12 04:58:16;;;;;;;7.80;3.87;;;;;;;13.57;100.00;96945.97;5020778;28;20037;-79
2022/07/12 05:00:41;;;;;;;5.80;3.23;;;;;;;13.76;100.00;96949.34;5042735;28;20406;-78
2022/07/12 05:03:07;;;;;;;5.20;3.50;;;;;;;13.89;100.00;96950.53;5029420;28;20030;-78
2022/07/12 05:05:33;;;;;;;5.37;3.33;;;;;;;14.05;100.00;96946.22;5042636;28;20479;-78
2022/07/12 05:07:58;;;;;;;5.53;2.90;;;;;;;14.23;100.00;96944.28;5034508;28;20047;-79
2022/07/12 05:10:25;;;;;;;5.07;3.37;;;;;;;14.30;100.00;96950.56;5028770;28;20025;-78
2022/07/12 05:12:51;;;;;;;7.40;3.60;;;;;;;14.31;100.00;96941.63;5016441;28;20585;-79
2022/07/12 05:15:18;;;;;;;9.33;7.40;;;;;;;14.34;100.00;96941.28;5009620;28;20121;-78
2022/07/12 05:17:44;;;;;;;11.27;8.30;;;;;;;14.27;100.00;96947.41;5027225;28;20101;-78
2022/07/12 05:20:10;;;;;;;7.63;4.53;;;;;;;14.23;100.00;96941.63;5021944;28;20124;-78
2022/07/12 05:22:35;;;;;;;5.70;3.60;;;;;;;14.20;100.00;96943.78;5026492;28;20037;-78
2022/07/12 05:25:10;;;;;;;6.33;3.90;;;;;;;14.32;100.00;96947.75;5030229;28;20133;-78
2022/07/12 05:27:36;;;;;;;5.43;3.47;;;;;;;14.14;100.00;96945.25;5032802;28;20036;-78
2022/07/12 05:30:03;;;;;;;7.10;4.17;;;;;;;14.02;100.00;96947.41;5038894;28;20076;-78
2022/07/12 05:32:29;;;;;;;5.13;3.50;;;;;;;14.35;100.00;96950.91;5040170;28;20060;-78
2022/07/12 05:34:55;;;;;;;5.70;3.77;;;;;;;14.57;100.00;96945.97;5033538;28;20038;-79
2022/07/12 05:37:23;;;;;;;6.40;3.67;;;;;;;14.62;100.00;96948.94;5028820;28;20029;-78
2022/07/12 05:39:49;;;;;;;6.40;4.67;;;;;;;14.94;100.00;96947.22;5037428;28;20051;-77
2022/07/12 05:42:14;;;;;;;7.67;5.07;;;;;;;14.94;100.00;96953.34;5027348;28;20026;-77
2022/07/12 05:44:40;;;;;;;7.43;5.40;;;;;;;14.93;100.00;96950.88;5025263;28;20032;-77
2022/07/12 05:47:06;;;;;;;11.23;9.00;;;;;;;15.15;100.00;96952.78;5039061;28;20052;-77
2022/07/12 05:49:32;;;;;;;7.83;5.47;;;;;;;15.29;100.00;96956.56;5032059;28;20098;-77
2022/07/12 05:54:41;;;;;;;7.30;4.43;;;;;;;15.42;100.00;96956.00;5038830;28;20040;-77
2022/07/12 05:57:07;;;;;;;5.90;4.13;;;;;;;15.41;100.00;96947.25;5035789;28;20739;-77
2022/07/12 05:59:35;;;;;;;4.95;3.42;;;;;;;15.34;100.00;96951.59;5039707;28;20457;-77
2022/07/12 06:02:00;;;;;;;5.07;3.17;;;;;;;15.58;100.00;96953.28;5042865;28;20041;-77
2022/07/12 06:04:26;;;;;;;4.50;2.83;;;;;;;15.78;100.00;96956.38;5029481;28;20095;-78
2022/07/12 06:06:52;;;;;;;5.10;3.28;;;;;;;15.88;100.00;96956.16;5036913;28;20037;-77
2022/07/12 06:09:17;;;;;;;4.60;2.97;;;;;;;16.08;100.00;96952.06;5039809;28;20030;-77
2022/07/12 06:11:43;;;;;;;4.35;2.97;;;;;;;15.98;100.00;96962.91;5046047;28;20481;-77
2022/07/12 06:14:08;;;;;;;4.80;3.03;;;;;;;16.09;100.00;96959.00;5041177;28;20871;-78
2022/07/12 06:16:34;;;;;;;5.90;3.40;;;;;;;16.53;100.00;96960.19;5041411;28;20033;-77
2022/07/12 06:19:00;;;;;;;4.63;2.53;;;;;;;16.97;100.00;96957.66;5034440;28;20486;-77
2022/07/12 06:21:26;;;;;;;4.75;2.55;;;;;;;17.31;100.00;96949.16;5040980;28;20490;-77
2022/07/12 06:23:53;;;;;;;3.83;2.58;;;;;;;18.10;100.00;96943.97;5042713;28;20044;-77
2022/07/12 06:26:18;;;;;;;3.67;2.45;;;;;;;18.22;100.00;96954.13;5032631;28;20021;-77
2022/07/12 06:28:44;;;;;;;4.90;3.28;;;;;;;18.52;100.00;96950.31;5040444;28;20513;-77
2022/07/12 06:31:10;;;;;;;4.07;2.42;;;;;;;18.40;100.00;96959.00;5040615;28;20059;-77
2022/07/12 06:33:35;;;;;;;4.40;2.78;;;;;;;18.46;100.00;96960.91;5025308;28;20034;-78
2022/07/12 06:36:01;;;;;;;5.22;2.25;;;;;;;18.47;100.00;96958.03;5067061;28;20056;-77
2022/07/12 06:38:27;;;;;;;2.33;1.73;;;;;;;18.81;100.00;96956.50;5038684;28;20460;-77
2022/07/12 06:40:53;;;;;;;2.80;1.92;;;;;;;19.49;100.00;96956.75;5035174;28;20087;-77
2022/07/12 06:43:18;;;;;;;2.15;1.35;;;;;;;19.69;100.00;96949.69;5032197;28;20160;-77
2022/07/12 06:45:44;;;;;;;1.95;1.40;;;;;;;20.00;100.00;96951.84;5037908;28;20029;-78
2022/07/12 06:48:10;;;;;;;1.52;1.17;;;;;;;20.20;99.37;96956.44;5046306;28;20054;-77
2022/07/12 06:50:35;;;;;;;1.13;0.80;;;;;;;20.32;97.79;96957.50;5035268;28;20037;-77
2022/07/12 06:53:01;;;;;;;1.35;0.85;;;;;;;19.67;100.00;96956.25;5029783;28;20387;-77
2022/07/12 06:55:27;;;;;;;1.63;1.02;;;;;;;20.76;96.20;96958.78;5037717;28;20082;-77
2022/07/12 06:57:53;;;;;;;2.65;1.20;;;;;;;21.08;92.54;96953.63;5034663;28;20032;-77
2022/07/12 07:00:18;;;;;;;0.77;0.70;;;;;;;21.85;86.85;96952.78;5041566;28;20050;-77
2022/07/12 07:02:44;;;;;;;2.38;0.82;;;;;;;21.78;83.25;96953.88;5034701;28;20036;-78
2022/07/12 07:05:11;;;;;;;1.13;0.98;;;;;;;20.35;91.41;96954.38;5031022;28;20037;-77
2022/07/12 07:07:36;;;;;;;1.10;0.88;;;;;;;21.79;82.31;96960.84;5019128;28;20091;-77
2022/07/12 07:10:03;;;;;;;2.33;0.70;;;;;;;21.78;81.66;96960.03;5036444;28;20041;-78
2022/07/12 07:12:28;;;;;;;0.77;0.60;;;;;;;22.28;77.10;96960.22;5036786;28;20033;-77
2022/07/12 07:14:54;;;;;;;1.48;0.90;;;;;;;22.22;79.62;96966.44;5020393;28;20034;-77
2022/07/12 07:17:20;;;;;;;1.38;0.90;;;;;;;23.25;75.86;96954.53;5021293;28;20564;-78
2022/07/12 07:19:46;;;;;;;0.70;0.70;;;;;;;22.29;77.72;96963.72;5039893;28;20065;-77
2022/07/12 07:22:12;;;;;;;1.02;0.90;;;;;;;22.90;75.60;96963.06;5030061;28;20036;-77
2022/07/12 07:24:39;;;;;;;1.27;0.80;;;;;;;24.14;69.49;96954.94;5028811;28;20041;-77
2022/07/12 07:27:06;;;;;;;2.38;0.70;;;;;;;24.25;63.68;96948.00;5029175;28;20056;-78
2022/07/12 07:32:16;;;;;;;0.95;0.60;;;;;;;23.55;65.83;96969.94;5033751;28;20046;-78
2022/07/12 07:34:42;;;;;;;2.10;0.77;;;;;;;23.26;65.50;96972.28;5036583;28;20367;-77
2022/07/12 07:37:08;;;;;;;0.95;0.60;;;;;;;23.32;65.12;96966.03;5039257;28;20704;-77
2022/07/12 07:39:34;;;;;;;0.70;0.43;;;;;;;24.23;61.74;96972.41;5044432;28;20045;-77
2022/07/12 07:42:00;;;;;;;0.93;0.50;;;;;;;24.35;54.87;96975.16;5029045;28;20029;-78
2022/07/12 07:44:26;;;;;;;1.20;0.60;;;;;;;23.92;55.78;96981.50;5030634;28;20034;-79
2022/07/12 07:46:52;;;;;;;0.40;0.40;;;;;;;25.25;50.73;96979.56;5060224;28;20719;-77
2022/07/12 07:49:17;;;;;;;0.47;0.40;;;;;;;23.99;52.08;96984.94;5028982;28;20025;-77
2022/07/12 07:51:43;;;;;;;1.55;0.57;;;;;;;24.64;51.45;96990.44;5028930;28;20044;-77
2022/07/12 07:54:09;;;;;;;0.63;0.40;;;;;;;25.40;48.73;96988.00;5037412;28;20044;-78
2022/07/12 07:56:34;;;;;;;1.67;0.30;;;;;;;26.83;45.48;96990.03;5038531;28;20042;-77
2022/07/12 07:59:00;;;;;;;0.60;0.40;;;;;;;25.54;48.03;96989.38;5040282;28;20034;-79
2022/07/12 08:04:14;;;;;;;1.33;0.40;;;;;;;25.20;48.25;96984.84;5028920;28;20044;-77
2022/07/12 08:06:40;;;;;;;0.50;0.35;;;;;;;24.81;50.27;96989.78;5036418;28;20053;-77
2022/07/12 08:09:06;;;;;;;0.52;0.30;;;;;;;24.23;52.47;96989.34;5036910;28;20068;-78
2022/07/12 08:11:33;;;;;;;0.73;0.22;;;;;;;24.15;51.65;96987.00;5039708;28;20029;-78
2022/07/12 08:13:59;;;;;;;0.98;0.38;;;;;;;24.11;53.71;96980.44;5033497;28;20082;-77
2022/07/12 08:16:25;;;;;;;0.35;0.30;;;;;;;23.38;55.21;96997.34;5033111;28;20499;-77
2022/07/12 08:18:52;;;;;;;0.30;0.30;;;;;;;23.46;54.48;96985.50;5025851;28;20042;-81
2022/07/12 08:21:17;;;;;;;0.52;0.35;;;;;;;22.85;59.18;96991.59;5033557;28;20036;-77
2022/07/12 08:23:43;;;;;;;0.95;0.55;;;;;;;23.01;60.10;96991.09;5027718;28;20029;-77
2022/07/12 08:26:09;;;;;;;2.10;0.50;;;;;;;22.76;61.73;96999.09;5033555;28;20059;-77
2022/07/12 08:28:35;;;;;;;0.65;0.50;;;;;;;23.02;58.48;96995.41;5034077;28;20037;-77
2022/07/12 08:31:01;;;;;;;0.40;0.40;;;;;;;23.23;60.74;96996.88;5029403;28;20077;-78
2022/07/12 08:33:26;;;;;;;0.63;0.40;;;;;;;23.10;57.55;96988.94;5027984;28;20068;-77
2022/07/12 08:35:52;;;;;;;0.63;0.45;;;;;;;24.28;55.81;96980.63;5032832;28;20043;-77
2022/07/12 08:38:18;;;;;;;1.02;0.60;;;;;;;25.60;49.14;96972.28;5036340;28;20045;-77
2022/07/12 08:40:43;;;;;;;1.17;0.40;;;;;;;25.49;46.65;96975.00;5023776;28;20036;-78
2022/07/12 08:43:09;;;;;;;0.30;0.30;;;;;;;26.66;43.17;96973.81;5046365;28;20409;-77
2022/07/12 08:45:35;;;;;;;0.40;0.40;;;;;;;26.62;43.63;96975.38;5042604;28;20100;-77
2022/07/12 08:48:01;;;;;;;0.47;0.32;;;;;;;24.88;45.84;96977.03;5035812;28;20037;-77
2022/07/12 08:50:27;;;;;;;0.35;0.35;;;;;;;25.54;46.44;96975.09;5036651;28;20032;-78
2022/07/12 08:52:54;;;;;;;0.40;0.40;;;;;;;25.35;46.01;96974.41;5032723;28;20140;-77
2022/07/12 08:55:28;;;;;;;0.40;0.30;;;;;;;24.32;48.79;96986.38;5027666;28;20496;-78
2022/07/12 08:57:56;;;;;;;0.60;0.40;;;;;;;24.91;47.01;96985.47;5041363;28;20036;-77
2022/07/12 09:00:23;;;;;;;0.30;0.30;;;;;;;23.98;48.07;96997.53;5036708;28;20042;-77
2022/07/12 09:02:50;;;;;;;0.30;0.30;;;;;;;23.03;50.01;97011.28;5040507;28;20041;-77
2022/07/12 09:05:21;;;;;;;0.20;0.20;;;;;;;23.18;51.73;96997.53;5034332;28;20617;-77
2022/07/12 09:07:48;;;;;;;1.25;0.40;;;;;;;23.97;50.95;96989.69;5038360;28;20040;-77
2022/07/12 09:10:14;;;;;;;2.40;1.73;;;;;;;23.64;52.81;97001.63;5028202;28;20037;-77
2022/07/12 09:12:42;;;;;;;1.23;0.40;;;;;;;23.04;53.01;97006.75;5038496;28;20470;-78
2022/07/12 09:15:19;;;;;;;0.30;0.30;;;;;;;23.18;53.58;97008.28;5031578;28;20018;-77
2022/07/12 09:17:46;;;;;;;0.40;0.38;;;;;;;22.71;58.36;96997.06;5023453;28;20060;-77
2022/07/12 09:20:13;;;;;;;1.67;0.93;;;;;;;23.64;56.92;97009.69;5034700;28;20049;-77
2022/07/12 09:22:51;;;;;;;0.50;0.50;;;;;;;24.02;52.55;96997.91;5033291;28;20029;-77
2022/07/12 09:25:18;;;;;;;0.40;0.40;;;;;;;24.36;51.61;96995.59;5027679;28;20033;-76
2022/07/12 09:27:51;;;;;;;2.13;0.60;;;;;;;24.62;51.47;96992.56;5025724;28;20167;-77
2022/07/12 09:30:17;;;;;;;0.80;0.60;;;;;;;26.18;48.55;96993.97;5026972;28;20155;-77
2022/07/12 09:38:26;;;;;;;0.32;0.32;;;;;;;24.99;47.56;97002.34;5031941;28;20170;-77
2022/07/12 09:40:54;;;;;;;0.88;0.50;;;;;;;23.68;49.71;97008.22;5043789;28;20375;-78
2022/07/12 09:43:20;;;;;;;0.95;0.30;;;;;;;23.14;50.23;97008.91;5035878;28;20034;-77
2022/07/12 09:45:49;;;;;;;0.68;0.40;;;;;;;23.89;49.37;97015.00;5045336;28;20040;-77
2022/07/12 09:48:16;;;;;;;0.52;0.30;;;;;;;24.55;49.08;97007.97;5012472;28;20033;-78
2022/07/12 09:50:48;;;;;;;0.47;0.38;;;;;;;25.01;47.32;97003.75;5040395;28;20028;-77
2022/07/12 09:53:37;;;;;;;0.82;0.35;;;;;;;25.30;47.32;96999.34;5038107;28;20041;-78
2022/07/12 09:56:06;;;;;;;1.13;0.40;;;;;;;25.85;45.02;97000.84;5037397;28;20036;-78
2022/07/12 09:58:53;;;;;;;0.30;0.30;;;;;;;25.79;45.66;96997.22;5025984;28;20045;-77
2022/07/12 10:01:20;;;;;;;0.38;0.30;;;;;;;27.52;43.19;97006.81;5033148;28;20037;-79
2022/07/12 10:03:48;;;;;;;0.57;0.30;;;;;;;28.35;41.13;97002.22;5047283;28;20585;-78
2022/07/12 10:06:25;;;;;;;0.70;0.40;;;;;;;26.82;42.43;97000.00;5036217;28;20033;-78
2022/07/12 10:08:52;;;;;;;2.30;0.40;;;;;;;27.35;40.87;97009.53;5034824;28;20061;-78
2022/07/12 10:11:19;;;;;;;0.70;0.40;;;;;;;27.66;40.83;96997.28;5017636;28;20124;-79
2022/07/12 10:13:46;;;;;;;1.55;0.77;;;;;;;27.22;42.52;97004.47;5038962;28;20030;-77
2022/07/12 10:16:14;;;;;;;2.50;0.50;;;;;;;28.41;39.65;96990.41;5025979;28;20040;-78
2022/07/12 10:18:40;;;;;;;0.40;0.40;;;;;;;28.33;40.18;96988.09;5021088;28;20038;-77
2022/07/12 10:21:22;;;;;;;1.00;0.47;;;;;;;28.54;38.63;96994.59;5048746;28;20056;-81
2022/07/12 10:23:48;;;;;;;1.35;0.50;;;;;;;29.01;37.17;96988.56;5029053;28;20044;-78
2022/07/12 10:26:13;;;;;;;0.60;0.40;;;;;;;29.76;36.22;96989.34;5028182;28;20414;-78
2022/07/12 10:29:01;;;;;;;1.45;0.40;;;;;;;29.43;37.45;96987.75;5029752;28;20045;-78
2022/07/12 10:31:34;;;;;;;0.40;0.40;;;;;;;29.46;36.16;96989.13;5041793;28;20117;-78
2022/07/12 10:34:23;;;;;;;0.73;0.43;;;;;;;29.02;36.13;96983.97;5039973;28;20041;-79
2022/07/12 10:36:54;;;;;;;0.47;0.40;;;;;;;29.26;35.58;96979.78;5030541;28;20029;-79
2022/07/12 10:39:25;;;;;;;1.67;0.70;;;;;;;30.68;34.68;96986.13;5042708;28;20569;-79
2022/07/12 10:42:17;;;;;;;0.68;0.47;;;;;;;30.70;34.00;96982.06;5037493;28;20379;-78
2022/07/12 10:44:47;;;;;;;0.38;0.38;;;;;;;29.96;34.81;96976.97;5027415;28;20124;-79
2022/07/12 10:47:15;;;;;;;1.70;0.70;;;;;;;30.06;35.12;96977.00;5035404;28;20422;-79
2022/07/12 10:49:50;;;;;;;2.17;0.40;;;;;;;27.39;37.63;96989.06;5037653;28;20021;-78
2022/07/12 10:52:22;;;;;;;0.88;0.55;;;;;;;28.90;36.33;96973.25;5041062;28;20040;-78
2022/07/12 10:55:14;;;;;;;1.33;0.68;;;;;;;28.33;38.24;96977.28;5043424;28;20032;-79
2022/07/12 10:57:50;;;;;;;0.73;0.50;;;;;;;26.12;41.05;96981.44;5031346;28;20430;-78
2022/07/12 11:00:17;;;;;;;0.40;0.40;;;;;;;27.06;40.76;96981.78;5032791;28;20478;-78
2022/07/12 11:02:43;;;;;;;1.23;0.50;;;;;;;27.01;39.58;96985.22;5014224;28;20040;-78
2022/07/12 11:05:09;;;;;;;0.85;0.43;;;;;;;27.65;39.52;96973.22;5031686;28;20033;-77
2022/07/12 11:07:35;;;;;;;0.43;0.30;;;;;;;29.48;36.70;96973.44;5028798;28;20041;-77
2022/07/12 11:10:01;;;;;;;0.55;0.50;;;;;;;29.97;35.89;96970.44;5029645;28;20033;-77
2022/07/12 11:12:31;;;;;;;0.95;0.60;;;;;;;29.86;34.37;96972.31;5036121;28;20134;-77
2022/07/12 11:14:59;;;;;;;0.40;0.40;;;;;;;30.01;34.14;96969.66;5037947;28;20033;-78
2022/07/12 11:17:30;;;;;;;0.40;0.40;;;;;;;29.76;33.86;96964.94;5037522;28;20070;-77
2022/07/12 11:20:13;;;;;;;0.38;0.38;;;;;;;29.23;35.13;96969.47;5020408;28;20037;-78
2022/07/12 11:22:42;;;;;;;0.63;0.40;;;;;;;29.77;33.51;96963.84;5033816;28;20033;-78
2022/07/12 11:25:10;;;;;;;0.40;0.40;;;;;;;30.41;33.12;96961.91;5029253;28;20052;-78
2022/07/12 11:27:36;;;;;;;0.52;0.50;;;;;;;30.44;32.97;96954.06;5028003;28;20044;-78
2022/07/12 11:30:04;;;;;;;0.50;0.50;;;;;;;28.19;36.04;96959.84;5040020;28;20080;-78
2022/07/12 11:32:50;;;;;;;0.65;0.40;;;;;;;26.31;39.63;96980.19;5029286;28;20486;-80
2022/07/12 11:35:21;;;;;;;0.50;0.50;;;;;;;28.47;37.48;96961.53;5023212;28;20474;-77
2022/07/12 11:37:54;;;;;;;0.40;0.40;;;;;;;27.44;37.88;96969.44;5034767;28;20029;-79
2022/07/12 11:40:28;;;;;;;0.90;0.50;;;;;;;28.40;36.79;96964.44;5024367;28;20049;-77
2022/07/12 11:42:59;;;;;;;0.80;0.50;;;;;;;27.64;37.54;96968.88;5034177;28;20041;-77
2022/07/12 11:45:26;;;;;;;1.27;0.60;;;;;;;27.25;37.66;96958.06;5020205;28;20036;-78
2022/07/12 11:47:52;;;;;;;2.17;0.50;;;;;;;27.66;39.14;96953.22;5042695;28;20170;-77
2022/07/12 11:50:19;;;;;;;1.23;0.80;;;;;;;28.74;36.81;96939.00;5047039;28;20508;-77
2022/07/12 11:52:45;;;;;;;5.97;3.60;;;;;;;28.95;36.04;96946.22;5035623;28;20041;-77